»·PEaware :: QXE2062 KPDX-KSEA

QXE2062 :: KPDX-KSEA

FLIGHT INFORMATION

Flight Status: Arrived
Operator:
Horizon Air
More flights by this operator :: More flights under this callsign
Pilot: Chad G. (1197)
Aircraft: DEHAVILLAND DASH 8 400
(DH8D)
More flights by this aircraft type
Origin: KPDX Portland Intl
United States
Destination: KSEA Seattle-Tacoma Intl
United States
More flights between these airports :: More routes between these airports
Route: COUGA KRIEG HAWKZ7
File this flight plan on PilotEdge
Remarks:
Altitude:
(Current/Filed)
14,000ft
Speed:
(Current/Filed)
303kts
Departed: 07-Mar-19 06:16 PM
Arrived: 07-Mar-19 06:50 PM
Distance/Time
Traveled:
112nm/0:34
Distance/Time
To Go:
Arrived

Flight Plot

Page will automatically refresh every two minutes.

Flight plan parsing failed; only flown route is shown


Map Options




Map Legend


Flown Route
Filed Route
Departure Airport
Arrival Airport
Navaid (VOR, NDB)
Fix

Horizontal Profiles

Position Reports

Time Latitude Longitude Heading Altitude Ground
Speed
07-Mar-19 17:19 45.586226 -122.592513 82 37ft 0kts
07-Mar-19 17:20 45.586226 -122.592513 82 37ft 0kts
07-Mar-19 17:21 45.586226 -122.592513 82 37ft 0kts
07-Mar-19 17:22 45.586226 -122.592513 82 37ft 0kts
07-Mar-19 17:23 45.586226 -122.592513 82 37ft 0kts
07-Mar-19 17:24 45.586226 -122.592513 82 37ft 0kts
07-Mar-19 17:25 45.586226 -122.592513 82 37ft 0kts
07-Mar-19 17:26 45.586226 -122.592513 82 37ft 0kts
07-Mar-19 17:27 45.586226 -122.592513 82 37ft 0kts
07-Mar-19 17:28 45.586226 -122.592513 82 37ft 0kts
07-Mar-19 17:29 45.586226 -122.592513 82 37ft 0kts
07-Mar-19 17:30 45.586226 -122.592513 82 37ft 0kts
07-Mar-19 17:31 45.586226 -122.592513 82 37ft 0kts
07-Mar-19 17:32 45.586226 -122.592513 82 37ft 0kts
07-Mar-19 17:33 45.586226 -122.592513 82 37ft 0kts
07-Mar-19 17:34 45.586226 -122.592513 82 37ft 0kts
07-Mar-19 17:35 45.586226 -122.592513 82 37ft 0kts
07-Mar-19 17:36 45.586226 -122.592513 82 37ft 0kts
07-Mar-19 17:37 45.586226 -122.592513 82 37ft 0kts
07-Mar-19 17:38 45.586226 -122.592513 82 37ft 0kts
07-Mar-19 17:39 45.586226 -122.592513 82 37ft 0kts
07-Mar-19 17:40 45.586226 -122.592513 82 37ft 0kts
07-Mar-19 17:41 45.586226 -122.592513 82 37ft 0kts
07-Mar-19 17:42 45.586226 -122.592513 82 37ft 0kts
07-Mar-19 17:43 45.586226 -122.592513 82 37ft 0kts
07-Mar-19 17:44 45.586226 -122.592513 82 37ft 0kts
07-Mar-19 17:45 45.586226 -122.592513 82 37ft 0kts
07-Mar-19 17:46 45.586226 -122.592513 82 37ft 0kts
07-Mar-19 17:47 45.586226 -122.592513 82 37ft 0kts
07-Mar-19 17:48 45.586226 -122.592513 82 37ft 0kts
07-Mar-19 17:49 45.586226 -122.592513 82 37ft 0kts
07-Mar-19 17:50 45.586226 -122.592513 82 37ft 0kts
07-Mar-19 17:51 45.586226 -122.592513 82 37ft 0kts
07-Mar-19 17:52 45.586226 -122.592513 82 37ft 0kts
07-Mar-19 17:53 45.586226 -122.592513 82 37ft 0kts
07-Mar-19 17:54 45.586226 -122.592513 82 37ft 0kts
07-Mar-19 17:55 45.586226 -122.592513 82 37ft 0kts
07-Mar-19 17:56 45.586226 -122.592513 82 37ft 0kts
07-Mar-19 17:57 45.586226 -122.592513 82 37ft 0kts
07-Mar-19 17:58 45.586226 -122.592513 82 37ft 0kts
07-Mar-19 17:59 45.586226 -122.592513 82 37ft 0kts
07-Mar-19 18:00 45.586222 -122.592567 82 37ft 2kts
07-Mar-19 18:01 45.585783 -122.592867 308 37ft 0kts
07-Mar-19 18:02 45.585783 -122.592867 308 37ft 0kts
07-Mar-19 18:03 45.585783 -122.592867 308 37ft 0kts
07-Mar-19 18:04 45.585803 -122.592903 308 37ft 0kts
07-Mar-19 18:05 45.585875 -122.593031 308 37ft 0kts
07-Mar-19 18:06 45.586074 -122.593381 309 37ft 6kts
07-Mar-19 18:07 45.587741 -122.597079 299 37ft 14kts
07-Mar-19 18:08 45.590016 -122.602908 299 37ft 10kts
07-Mar-19 18:09 45.591638 -122.607604 299 37ft 21kts
07-Mar-19 18:10 45.594144 -122.614033 299 37ft 14kts
07-Mar-19 18:11 45.596326 -122.619725 283 37ft 11kts
07-Mar-19 18:12 45.596031 -122.620579 208 37ft 0kts
07-Mar-19 18:13 45.596023 -122.620583 208 37ft 0kts
07-Mar-19 18:14 45.595703 -122.620828 208 37ft 12kts
07-Mar-19 18:15 45.587357 -122.601022 120 639ft 148kts
07-Mar-19 18:16 45.563777 -122.539125 118 3683ft 202kts
07-Mar-19 18:17 45.567561 -122.454039 33 6469ft 252kts
07-Mar-19 18:18 45.637725 -122.461782 337 9548ft 255kts
07-Mar-19 18:19 45.710810 -122.495859 337 12018ft 267kts
07-Mar-19 18:20 45.786918 -122.531145 336 13723ft 286kts
07-Mar-19 18:21 45.871604 -122.571547 336 13990ft 321kts
07-Mar-19 18:22 45.962715 -122.615381 336 13992ft 330kts
07-Mar-19 18:23 46.053935 -122.659311 336 13992ft 331kts
07-Mar-19 18:24 46.148499 -122.689460 348 13996ft 337kts
07-Mar-19 18:25 46.245765 -122.707443 347 13995ft 336kts
07-Mar-19 18:26 46.343279 -122.723882 352 13992ft 339kts
07-Mar-19 18:27 46.440784 -122.726673 354 13988ft 340kts
07-Mar-19 18:28 46.537693 -122.729979 353 13983ft 340kts
07-Mar-19 18:29 46.636410 -122.733643 354 13981ft 339kts
07-Mar-19 18:30 46.734586 -122.737376 354 12864ft 332kts
07-Mar-19 18:31 46.821646 -122.696688 36 12111ft 326kts
07-Mar-19 18:32 46.894019 -122.611492 36 11970ft 308kts
07-Mar-19 18:33 46.968059 -122.547157 13 11968ft 299kts
07-Mar-19 18:34 47.049649 -122.513432 13 11965ft 299kts
07-Mar-19 18:35 47.131900 -122.489798 3 11156ft 295kts
07-Mar-19 18:36 47.211464 -122.476675 3 10040ft 280kts
07-Mar-19 18:37 47.290194 -122.463622 5 9773ft 277kts
07-Mar-19 18:39 47.362243 -122.453104 0 8591ft 274kts
07-Mar-19 18:40 47.438935 -122.449924 359 7109ft 268kts
07-Mar-19 18:41 47.514993 -122.447709 359 5554ft 263kts
07-Mar-19 18:42 47.587655 -122.446668 359 3980ft 257kts
07-Mar-19 18:43 47.651212 -122.421669 62 2986ft 228kts
07-Mar-19 18:44 47.634759 -122.345234 127 2966ft 187kts
07-Mar-19 18:45 47.591816 -122.307880 176 1959ft 182kts
07-Mar-19 18:46 47.545278 -122.307097 179 1860ft 160kts
07-Mar-19 18:47 47.507365 -122.307466 180 1263ft 111kts
07-Mar-19 18:48 47.475899 -122.307300 179 718ft 109kts
07-Mar-19 18:49 47.450811 -122.307902 179 441ft 48kts
07-Mar-19 18:50 47.445670 -122.306382 170 441ft 8kts
07-Mar-19 18:51 47.443431 -122.305013 90 441ft 4kts
07-Mar-19 18:52 47.443567 -122.304764 38 440ft 0kts

Navigation Log

Ident Type
Flight plan parsing failed, navigation log unavailable